Accueil
METAR-TAF:

METAR-TAF

Aéroports :

Mannheim, Allemagne

Aéroport de Mannheim

latitude: 49-28-21N, longitude: 008-30-56E, altitude: 100 m

Observation

Le bulletin a été fait il y a 36 minutes, à 06:20 UTC
Vent 7 kt de nord-ouest
Température 21°C
Humidité 64%
Pression 1016 hPa
Visibilité 10 km ou plus
pas de nuages en-dessous de 1500 mètres et pas de cumulonimbus.

METAR: EDFM 230620Z 32007KT CAVOK 21/14 Q1016

Heure: 08:56 (06:56 UTC)

Prévision

Le bulletin a été fait il y a 1 heure et 56 minutes, à 05:00 UTC
Prévision valable du 23 à 06 UTC au 23 à 15 UTC
Vent 5 kt de nord
Visibilité 10 km ou plus
Quelques nuages à une hauteur de 4000 ft
Evoluant progressivement
du 23 à 08 UTC au 23 à 10 UTC
Vent 11 kt de ouest/nord-ouest

TAF: EDFM 230500Z 2306/2315 35005KT 9999 FEW040 BECMG 2308/2310 29011KT

Observations et prévisions météorologiques de plus de 4000 aéroports (messages METAR et TAF).

Les stations disponibles sont représentées par des disques jaunes et rouges sur la carte.

Passer la souris dessus pour voir le nom de la station.

Cliquer dessus pour voir les observations et prévisions météorologiques.

Pour changer de carte: cliquez sur les boutons verts avec une croix noire pour zoomer, sur le bouton vert avec un tiret pour effectuer un zoom arrière, ou sur les flèches vertes pour les cartes adjacentes.


METAR-TAF: